Etusivu
METAR-TAF:

METAR-TAF

Lentoasemat :

Sabadell, Espanja

Leveyspiiri: 41-31N, Pituuspiiri: 002-06E, korkeus merenpinnasta: 250 m

Tämänhetkinen sää

Tämä raportti tehtiin 24 minuuttia sitten, kello 19.30 UTC
Tuuli 2 kn eri suunnista
Lämpötila 25°C
Kosteus 65%
Ilmanpaine 1019 hPa
Näkyvyys 10 km tai enemmän

METAR: LELL 231930Z AUTO VRB02KT 9999 NCD 25/18 Q1019

Aika: 21:54 (19:54 UTC)

Sääennuste

Tämä raportti tehtiin 5 tuntia ja 54 minuuttia sitten, kello 14.00 UTC
Ennuste voimassa 23. päivästä klo 15 UTC - 24. päivään klo 15 UTC
Tuuli 10 kn kaakosta
Näkyvyys 10 km tai enemmän
Muutamia pilviä 2000 ft:n korkeudessa
Tulossa
23. päivästä klo 18 UTC - 23. päivään klo 20 UTC
Tuuli 4 kn eri suunnista
Tulossa
24. päivästä klo 10 UTC - 24. päivään klo 12 UTC
Tuuli 10 kn etelästä

TAF: LELL 231400Z 2315/2415 13010KT 9999 FEW020 TX32/2413Z TN18/2405Z BECMG 2318/2320 VRB04KT BECMG 2410/2412 19010KT

Säähavainnot ja -ennusteet yli 4000 lentoasemalta (METAR- ja TAF-raportit).

Käytössä olevat sääasemat on merkitty karttaan keltaisilla ja punaisilla pisteillä.

Aseta hiiri pisteen päälle nähdäksesi sääaseman nimen.

Klikkaa sitten nähdäksesi säähavainnot ja -ennusteet.

Kartan vaihtaminen: klikkaa mustalla rastilla varustettuja vihreitä pisteitä, niin voit zoomata sisään; viivalla varustettua vihreää pistettä, niin voit zoomata ulos tai vihreitä nuolia, niin pääset viereisille kartoille.


METAR-TAF: